Time;durP1;ratioP1;P1;durP2;ratioP2;P2;SDS_P1;SDS_P2;PMS_P1;PMS_P2;Temp;Humidity;BMP_temperature;BMP_pressure;BME280_temperature;BME280_humidity;BME280_pressure;Samples;Min_cycle;Max_cycle;Signal;HPM_P1;HPM_P2
2023/03/10 00:01:35;;;;;;;3.97;0.90;;;;;;;;;;5055524;28;20037;-58
2023/03/10 00:04:01;;;;;;;1.42;0.40;;;;;;;;;;5055113;28;20108;-58
2023/03/10 00:06:28;;;;;;;1.98;0.90;;;;;;;;;;5055460;28;20025;-58
2023/03/10 00:08:55;;;;;;;6.45;1.13;;;;;;;;;;5055055;28;20463;-58
2023/03/10 00:11:21;;;;;;;3.15;1.27;;;;;;;;;;5055482;28;20148;-58
2023/03/10 00:13:47;;;;;;;3.05;1.15;;;;;;;;;;5055447;28;20119;-58
2023/03/10 00:16:20;;;;;;;1.75;0.82;;;;;;;;;;5055329;28;20095;-59
2023/03/10 00:18:47;;;;;;;3.75;1.20;;;;;;;;;;5054941;28;20021;-59
2023/03/10 00:21:14;;;;;;;1.83;0.63;;;;;;;;;;5055333;28;20037;-59
2023/03/10 00:23:40;;;;;;;4.03;0.95;;;;;;;;;;5055048;28;20409;-58
2023/03/10 00:26:07;;;;;;;5.53;1.20;;;;;;;;;;5055002;28;20104;-59
2023/03/10 00:28:32;;;;;;;2.30;0.52;;;;;;;;;;5055165;28;20028;-58
2023/03/10 00:30:58;;;;;;;2.70;0.98;;;;;;;;;;5054572;28;20094;-59
2023/03/10 00:33:24;;;;;;;4.53;0.70;;;;;;;;;;5054659;28;20032;-58
2023/03/10 00:35:59;;;;;;;2.33;1.10;;;;;;;;;;5055203;28;20074;-59
2023/03/10 00:38:25;;;;;;;1.95;0.73;;;;;;;;;;5055063;28;20119;-58
2023/03/10 00:40:56;;;;;;;1.05;0.75;;;;;;;;;;5054360;28;20024;-58
2023/03/10 00:43:22;;;;;;;4.30;0.60;;;;;;;;;;5054968;28;20112;-58
2023/03/10 00:45:48;;;;;;;2.33;0.52;;;;;;;;;;5054953;28;20478;-59
2023/03/10 00:48:14;;;;;;;4.35;1.02;;;;;;;;;;5054059;28;20060;-59
2023/03/10 00:50:40;;;;;;;2.58;1.10;;;;;;;;;;5054224;28;20379;-58
2023/03/10 00:53:06;;;;;;;1.83;0.60;;;;;;;;;;5054238;28;20411;-59
2023/03/10 00:55:32;;;;;;;0.82;0.45;;;;;;;;;;5054556;28;20363;-58
2023/03/10 00:57:58;;;;;;;1.60;0.40;;;;;;;;;;5054209;28;20051;-58
2023/03/10 01:00:24;;;;;;;2.15;0.60;;;;;;;;;;5054171;28;20477;-58
2023/03/10 01:02:51;;;;;;;2.65;0.68;;;;;;;;;;5054435;28;20470;-59
2023/03/10 01:05:17;;;;;;;2.92;0.80;;;;;;;;;;5054931;28;20025;-59
2023/03/10 01:07:43;;;;;;;4.00;1.17;;;;;;;;;;5054103;28;20074;-60
2023/03/10 01:10:10;;;;;;;1.58;0.57;;;;;;;;;;5054439;28;20123;-58
2023/03/10 01:12:36;;;;;;;1.70;0.75;;;;;;;;;;5053934;28;20052;-58
2023/03/10 01:15:02;;;;;;;2.17;0.50;;;;;;;;;;5054590;28;20040;-57
2023/03/10 01:17:28;;;;;;;1.02;0.52;;;;;;;;;;5053926;28;20021;-58
2023/03/10 01:19:54;;;;;;;3.08;0.77;;;;;;;;;;5053810;28;20104;-58
2023/03/10 01:22:20;;;;;;;1.20;0.77;;;;;;;;;;5054108;28;20371;-58
2023/03/10 01:24:46;;;;;;;1.67;0.90;;;;;;;;;;5053874;28;20378;-58
2023/03/10 01:27:12;;;;;;;1.40;0.70;;;;;;;;;;5053718;28;20029;-58
2023/03/10 01:29:38;;;;;;;2.03;0.90;;;;;;;;;;5054159;28;20031;-58
2023/03/10 01:32:04;;;;;;;1.33;0.55;;;;;;;;;;5053640;28;20025;-59
2023/03/10 01:34:30;;;;;;;3.88;0.90;;;;;;;;;;5053722;28;20036;-58
2023/03/10 01:36:56;;;;;;;2.85;1.23;;;;;;;;;;5053795;28;20056;-55
2023/03/10 01:39:22;;;;;;;5.82;0.88;;;;;;;;;;5054167;28;20048;-58
2023/03/10 01:41:48;;;;;;;2.78;0.85;;;;;;;;;;5052082;28;20033;-59
2023/03/10 01:44:20;;;;;;;5.15;0.73;;;;;;;;;;5053568;28;20031;-58
2023/03/10 01:46:47;;;;;;;4.40;0.55;;;;;;;;;;5054192;28;20348;-58
2023/03/10 01:49:25;;;;;;;1.42;0.65;;;;;;;;;;5054272;28;20028;-58
2023/03/10 01:51:55;;;;;;;2.47;0.95;;;;;;;;;;5053518;28;20040;-58
2023/03/10 01:54:23;;;;;;;2.85;0.88;;;;;;;;;;5057044;28;20025;-58
2023/03/10 01:56:50;;;;;;;1.63;0.65;;;;;;;;;;5057627;28;20036;-58
2023/03/10 01:59:16;;;;;;;1.80;0.90;;;;;;;;;;5057853;28;20025;-58
2023/03/10 02:01:42;;;;;;;3.47;0.65;;;;;;;;;;5057538;28;20029;-58
2023/03/10 02:04:10;;;;;;;1.00;0.57;;;;;;;;;;5057774;28;20104;-58
2023/03/10 02:06:37;;;;;;;4.05;1.00;;;;;;;;;;5057762;28;20033;-58
2023/03/10 02:09:03;;;;;;;0.45;0.28;;;;;;;;;;5057380;28;20027;-58
2023/03/10 02:11:30;;;;;;;2.90;0.70;;;;;;;;;;5057839;28;20047;-58
2023/03/10 02:13:56;;;;;;;2.38;0.77;;;;;;;;;;5057034;28;20045;-57
2023/03/10 02:16:22;;;;;;;1.20;0.60;;;;;;;;;;5057539;28;20036;-58
2023/03/10 02:18:49;;;;;;;6.97;0.95;;;;;;;;;;5057076;28;20025;-58
2023/03/10 02:21:20;;;;;;;3.30;0.57;;;;;;;;;;5057131;28;20025;-57
2023/03/10 02:23:49;;;;;;;2.20;0.70;;;;;;;;;;5057404;28;20068;-58
2023/03/10 02:26:26;;;;;;;1.92;0.80;;;;;;;;;;5057397;28;20383;-58
2023/03/10 02:28:53;;;;;;;1.85;0.63;;;;;;;;;;5057059;28;20123;-58
2023/03/10 02:31:19;;;;;;;0.85;0.57;;;;;;;;;;5056832;28;20089;-56
2023/03/10 02:33:46;;;;;;;0.57;0.32;;;;;;;;;;5056933;28;20028;-58
2023/03/10 02:36:16;;;;;;;0.93;0.50;;;;;;;;;;5057433;28;20356;-58
2023/03/10 02:38:42;;;;;;;1.40;0.60;;;;;;;;;;5056875;28;20028;-57
2023/03/10 02:41:18;;;;;;;3.42;0.70;;;;;;;;;;5056484;28;20387;-56
2023/03/10 02:43:45;;;;;;;4.38;0.73;;;;;;;;;;5057799;28;20021;-58
2023/03/10 02:46:11;;;;;;;0.95;0.50;;;;;;;;;;5057286;28;20104;-57
2023/03/10 02:48:38;;;;;;;1.00;0.55;;;;;;;;;;5056667;28;20494;-57
2023/03/10 02:51:06;;;;;;;1.80;0.50;;;;;;;;;;5056384;28;20040;-57
2023/03/10 02:53:32;;;;;;;0.85;0.70;;;;;;;;;;5057225;28;20021;-58
2023/03/10 02:55:58;;;;;;;0.70;0.40;;;;;;;;;;5057135;28;20358;-58
2023/03/10 02:58:25;;;;;;;1.05;0.70;;;;;;;;;;5056484;28;20021;-58
2023/03/10 03:00:51;;;;;;;1.52;0.63;;;;;;;;;;5056706;28;20072;-58
2023/03/10 03:03:19;;;;;;;1.17;0.47;;;;;;;;;;5056308;28;20025;-58
2023/03/10 03:05:45;;;;;;;0.32;0.20;;;;;;;;;;5055537;28;20410;-58
2023/03/10 03:08:11;;;;;;;0.95;0.40;;;;;;;;;;5056719;28;20522;-58
2023/03/10 03:10:38;;;;;;;2.95;0.65;;;;;;;;;;5056692;28;20041;-58
2023/03/10 03:13:05;;;;;;;0.30;0.22;;;;;;;;;;5056950;28;20095;-58
2023/03/10 03:15:31;;;;;;;0.73;0.30;;;;;;;;;;5056114;28;20028;-58
2023/03/10 03:18:00;;;;;;;0.52;0.20;;;;;;;;;;5056147;28;20021;-58
2023/03/10 03:20:27;;;;;;;1.52;0.52;;;;;;;;;;5056558;28;20028;-58
2023/03/10 03:22:54;;;;;;;1.20;0.85;;;;;;;;;;5056054;28;20025;-56
2023/03/10 03:25:21;;;;;;;0.47;0.25;;;;;;;;;;5056288;28;20099;-58
2023/03/10 03:27:48;;;;;;;0.50;0.32;;;;;;;;;;5055993;28;20370;-57
2023/03/10 03:30:15;;;;;;;0.45;0.20;;;;;;;;;;5056340;28;20043;-58
2023/03/10 03:32:42;;;;;;;0.40;0.20;;;;;;;;;;5056177;28;20025;-57
2023/03/10 03:35:12;;;;;;;0.28;0.10;;;;;;;;;;5056108;28;20410;-58
2023/03/10 03:37:38;;;;;;;2.45;0.50;;;;;;;;;;5055572;28;20025;-59
2023/03/10 03:40:11;;;;;;;0.85;0.20;;;;;;;;;;5055975;28;20549;-58
2023/03/10 03:42:38;;;;;;;1.85;0.30;;;;;;;;;;5056518;28;20075;-58
2023/03/10 03:45:04;;;;;;;0.30;0.13;;;;;;;;;;5056231;28;20111;-58
2023/03/10 03:47:30;;;;;;;0.22;0.10;;;;;;;;;;5055626;28;20473;-58
2023/03/10 03:49:56;;;;;;;0.38;0.20;;;;;;;;;;5055919;28;20036;-58
2023/03/10 03:52:22;;;;;;;0.43;0.10;;;;;;;;;;5055463;28;20032;-58
2023/03/10 03:54:48;;;;;;;0.00;0.00;;;;;;;;;;5055521;28;20021;-58
2023/03/10 03:57:14;;;;;;;0.10;0.10;;;;;;;;;;5055442;28;20021;-58
2023/03/10 03:59:40;;;;;;;3.30;0.22;;;;;;;;;;5055335;28;20036;-58
2023/03/10 04:02:05;;;;;;;0.15;0.10;;;;;;;;;;5055351;28;20039;-57
2023/03/10 04:04:31;;;;;;;0.20;0.10;;;;;;;;;;5055158;28;20029;-59
2023/03/10 04:06:57;;;;;;;3.03;0.32;;;;;;;;;;5055243;28;20029;-58
2023/03/10 04:09:23;;;;;;;0.35;0.20;;;;;;;;;;5055177;28;20029;-58
2023/03/10 04:11:49;;;;;;;0.50;0.20;;;;;;;;;;5054996;28;20045;-58
2023/03/10 04:14:15;;;;;;;0.65;0.20;;;;;;;;;;5055648;28;20132;-57
2023/03/10 04:16:41;;;;;;;0.32;0.17;;;;;;;;;;5054592;28;20033;-58
2023/03/10 04:19:07;;;;;;;0.13;0.05;;;;;;;;;;5055275;28;20029;-58
2023/03/10 04:21:34;;;;;;;0.32;0.10;;;;;;;;;;5054974;28;20036;-58
2023/03/10 04:24:00;;;;;;;0.43;0.17;;;;;;;;;;5054819;28;20025;-58
2023/03/10 04:26:26;;;;;;;1.30;0.20;;;;;;;;;;5055225;28;20447;-57
2023/03/10 04:28:52;;;;;;;0.22;0.13;;;;;;;;;;5054749;28;20032;-58
2023/03/10 04:31:18;;;;;;;0.43;0.22;;;;;;;;;;5054830;28;20155;-58
2023/03/10 04:33:44;;;;;;;1.98;0.43;;;;;;;;;;5054758;28;20073;-58
2023/03/10 04:36:10;;;;;;;0.20;0.10;;;;;;;;;;5055055;28;20040;-57
2023/03/10 04:38:36;;;;;;;0.60;0.28;;;;;;;;;;5054665;28;20033;-57
2023/03/10 04:41:03;;;;;;;0.50;0.20;;;;;;;;;;5054928;28;20455;-58
2023/03/10 04:43:30;;;;;;;0.10;0.10;;;;;;;;;;5054187;28;20029;-58
2023/03/10 04:45:56;;;;;;;0.40;0.10;;;;;;;;;;5054618;28;20024;-58
2023/03/10 04:48:23;;;;;;;0.32;0.13;;;;;;;;;;5054572;28;20025;-58
2023/03/10 04:51:02;;;;;;;1.35;0.22;;;;;;;;;;5054550;28;20043;-58
2023/03/10 04:53:29;;;;;;;1.05;0.35;;;;;;;;;;5054711;28;20531;-58
2023/03/10 04:55:55;;;;;;;0.40;0.17;;;;;;;;;;5054411;28;20524;-58
2023/03/10 04:58:21;;;;;;;0.32;0.10;;;;;;;;;;5054637;28;20060;-58
2023/03/10 05:00:48;;;;;;;0.32;0.10;;;;;;;;;;5054297;28;20033;-59
2023/03/10 05:03:14;;;;;;;0.68;0.20;;;;;;;;;;5054456;28;20051;-58
2023/03/10 05:05:40;;;;;;;0.98;0.52;;;;;;;;;;5054264;28;20057;-57
2023/03/10 05:08:06;;;;;;;0.40;0.20;;;;;;;;;;5054214;28;20082;-57
2023/03/10 05:10:32;;;;;;;1.83;0.50;;;;;;;;;;5054090;28;20033;-58
2023/03/10 05:12:58;;;;;;;0.32;0.17;;;;;;;;;;5054215;28;20060;-58
2023/03/10 05:15:24;;;;;;;1.27;0.20;;;;;;;;;;5054581;28;20060;-58
2023/03/10 05:17:50;;;;;;;0.90;0.40;;;;;;;;;;5054540;28;20029;-58
2023/03/10 05:20:17;;;;;;;1.90;0.38;;;;;;;;;;5054029;28;20086;-58
2023/03/10 05:22:43;;;;;;;0.40;0.10;;;;;;;;;;5054025;28;20376;-59
2023/03/10 05:25:10;;;;;;;0.82;0.30;;;;;;;;;;5053972;28;20064;-58
2023/03/10 05:27:37;;;;;;;1.25;0.82;;;;;;;;;;5053936;28;20021;-58
2023/03/10 05:30:04;;;;;;;0.52;0.22;;;;;;;;;;5054048;28;20514;-58
2023/03/10 05:32:30;;;;;;;0.65;0.30;;;;;;;;;;5053997;28;20477;-58
2023/03/10 05:34:56;;;;;;;0.90;0.30;;;;;;;;;;5053526;28;20539;-58
2023/03/10 05:37:22;;;;;;;0.50;0.20;;;;;;;;;;5053471;28;20049;-58
2023/03/10 05:39:48;;;;;;;0.93;0.32;;;;;;;;;;5054254;28;20029;-58
2023/03/10 05:42:14;;;;;;;0.52;0.20;;;;;;;;;;5053377;28;20033;-58
2023/03/10 05:44:40;;;;;;;0.55;0.20;;;;;;;;;;5053945;28;20108;-58
2023/03/10 05:47:06;;;;;;;0.32;0.20;;;;;;;;;;5053657;28;20025;-58
2023/03/10 05:49:32;;;;;;;1.15;0.52;;;;;;;;;;5054194;28;20033;-58
2023/03/10 05:51:58;;;;;;;0.68;0.25;;;;;;;;;;5053559;28;20059;-58
2023/03/10 05:54:24;;;;;;;0.95;0.25;;;;;;;;;;5054116;28;20036;-58
2023/03/10 05:56:50;;;;;;;0.73;0.30;;;;;;;;;;5053846;28;20029;-58
2023/03/10 05:59:16;;;;;;;0.30;0.20;;;;;;;;;;5053594;28;20025;-58
2023/03/10 06:01:42;;;;;;;2.53;0.50;;;;;;;;;;5053507;28;20037;-58
2023/03/10 06:04:08;;;;;;;0.57;0.30;;;;;;;;;;5053570;28;20032;-58
2023/03/10 06:06:34;;;;;;;0.40;0.20;;;;;;;;;;5053687;28;20104;-58
2023/03/10 06:09:00;;;;;;;0.47;0.10;;;;;;;;;;5053857;28;20025;-58
2023/03/10 06:11:26;;;;;;;0.47;0.20;;;;;;;;;;5053325;28;20107;-58
2023/03/10 06:13:52;;;;;;;2.45;0.20;;;;;;;;;;5053839;28;20125;-58
2023/03/10 06:16:19;;;;;;;2.00;0.50;;;;;;;;;;5054197;28;20101;-58
2023/03/10 06:18:45;;;;;;;3.03;0.38;;;;;;;;;;5053373;28;20033;-58
2023/03/10 06:21:11;;;;;;;1.15;0.45;;;;;;;;;;5053793;28;20454;-58
2023/03/10 06:23:37;;;;;;;1.65;0.45;;;;;;;;;;5053588;28;20029;-58
2023/03/10 06:26:08;;;;;;;0.57;0.20;;;;;;;;;;5053477;28;20035;-58
2023/03/10 06:28:35;;;;;;;;;;;;;;;;;;5054047;28;20040;-58
2023/03/10 06:31:02;;;;;;;0.60;0.30;;;;;;;;;;5053066;28;19956;-57
2023/03/10 06:33:28;;;;;;;0.43;0.30;;;;;;;;;;5053273;28;20029;-58
2023/03/10 06:35:54;;;;;;;0.38;0.10;;;;;;;;;;5054066;28;20033;-58
2023/03/10 06:38:21;;;;;;;0.00;0.00;;;;;;;;;;5053730;28;20336;-58
2023/03/10 06:40:47;;;;;;;0.35;0.17;;;;;;;;;;5057365;28;20033;-58
2023/03/10 06:43:13;;;;;;;0.00;0.00;;;;;;;;;;5057412;28;20363;-58
2023/03/10 06:45:42;;;;;;;0.15;0.10;;;;;;;;;;5056821;28;20382;-58
2023/03/10 06:48:09;;;;;;;1.98;0.30;;;;;;;;;;5056949;28;20033;-58
2023/03/10 06:50:35;;;;;;;0.35;0.20;;;;;;;;;;5056560;28;20065;-58
2023/03/10 06:53:01;;;;;;;0.90;0.22;;;;;;;;;;5056926;28;20110;-58
2023/03/10 06:55:27;;;;;;;2.35;1.40;;;;;;;;;;5057179;28;20029;-58
2023/03/10 06:57:53;;;;;;;0.38;0.10;;;;;;;;;;5056869;28;20048;-58
2023/03/10 07:00:19;;;;;;;1.00;0.25;;;;;;;;;;5056716;28;20455;-58
2023/03/10 07:02:45;;;;;;;1.27;0.38;;;;;;;;;;5056445;28;20522;-59
2023/03/10 07:05:11;;;;;;;1.27;0.98;;;;;;;;;;5056358;28;20100;-58
2023/03/10 07:07:37;;;;;;;0.50;0.22;;;;;;;;;;5056224;28;20075;-58
2023/03/10 07:10:04;;;;;;;2.40;0.20;;;;;;;;;;5056713;28;20036;-57
2023/03/10 07:12:30;;;;;;;0.30;0.10;;;;;;;;;;5056000;28;20119;-59
2023/03/10 07:14:56;;;;;;;1.65;0.20;;;;;;;;;;5056707;28;20115;-58
2023/03/10 07:17:22;;;;;;;4.82;0.60;;;;;;;;;;5056106;28;20029;-59
2023/03/10 07:19:48;;;;;;;0.52;0.20;;;;;;;;;;5056146;28;20037;-58
2023/03/10 07:22:14;;;;;;;0.22;0.05;;;;;;;;;;5055650;28;20218;-58
2023/03/10 07:24:40;;;;;;;1.65;0.20;;;;;;;;;;5055890;28;20025;-58
2023/03/10 07:27:06;;;;;;;0.77;0.35;;;;;;;;;;5056214;28;20028;-58
2023/03/10 07:29:32;;;;;;;0.90;0.32;;;;;;;;;;5055873;28;20057;-58
2023/03/10 07:31:58;;;;;;;0.73;0.40;;;;;;;;;;5055840;28;20111;-58
2023/03/10 07:34:24;;;;;;;5.20;1.02;;;;;;;;;;5056408;28;20040;-59
2023/03/10 07:36:50;;;;;;;0.75;0.35;;;;;;;;;;5055681;28;20107;-58
2023/03/10 07:39:16;;;;;;;1.00;0.40;;;;;;;;;;5055709;28;20025;-58
2023/03/10 07:41:42;;;;;;;0.88;0.43;;;;;;;;;;5055585;28;20056;-59
2023/03/10 07:44:08;;;;;;;0.90;0.40;;;;;;;;;;5055570;28;20102;-59
2023/03/10 07:46:34;;;;;;;0.22;0.10;;;;;;;;;;5056104;28;20033;-58
2023/03/10 07:49:03;;;;;;;1.00;0.38;;;;;;;;;;5055571;28;20375;-59
2023/03/10 07:51:29;;;;;;;0.22;0.13;;;;;;;;;;5054592;28;20041;-59
2023/03/10 07:53:55;;;;;;;2.45;0.52;;;;;;;;;;5055607;28;20032;-58
2023/03/10 07:56:21;;;;;;;1.27;0.50;;;;;;;;;;5055787;28;20021;-59
2023/03/10 07:58:47;;;;;;;1.55;0.60;;;;;;;;;;5055362;28;20090;-59
2023/03/10 08:01:15;;;;;;;0.68;0.65;;;;;;;;;;5055300;28;20037;-58
2023/03/10 08:03:41;;;;;;;0.93;0.30;;;;;;;;;;5055019;28;20048;-58
2023/03/10 08:06:07;;;;;;;4.43;0.30;;;;;;;;;;5054930;28;20029;-58
2023/03/10 08:08:33;;;;;;;0.60;0.30;;;;;;;;;;5055167;28;20052;-58
2023/03/10 08:11:00;;;;;;;0.82;0.30;;;;;;;;;;5054799;28;20098;-58
2023/03/10 08:13:26;;;;;;;0.47;0.17;;;;;;;;;;5054961;28;20094;-57
2023/03/10 08:15:52;;;;;;;0.35;0.22;;;;;;;;;;5055459;28;20024;-58
2023/03/10 08:18:18;;;;;;;0.10;0.08;;;;;;;;;;5055101;28;20043;-58
2023/03/10 08:20:44;;;;;;;1.48;0.75;;;;;;;;;;5054786;28;20387;-58
2023/03/10 08:23:10;;;;;;;0.20;0.10;;;;;;;;;;5054814;28;20163;-58
2023/03/10 08:25:37;;;;;;;1.00;0.10;;;;;;;;;;5055120;28;20025;-58
2023/03/10 08:28:03;;;;;;;2.80;0.30;;;;;;;;;;5055419;28;20032;-58
2023/03/10 08:30:29;;;;;;;1.65;0.52;;;;;;;;;;5054535;28;20483;-58
2023/03/10 08:32:55;;;;;;;0.08;0.08;;;;;;;;;;5055252;28;20028;-58
2023/03/10 08:35:21;;;;;;;0.00;0.00;;;;;;;;;;5055135;28;20024;-58
2023/03/10 08:37:47;;;;;;;0.28;0.10;;;;;;;;;;5054756;28;20025;-58
2023/03/10 08:40:14;;;;;;;1.00;0.28;;;;;;;;;;5054601;28;20025;-59
2023/03/10 08:42:40;;;;;;;0.65;0.20;;;;;;;;;;5054613;28;20083;-59
2023/03/10 08:45:07;;;;;;;4.93;0.35;;;;;;;;;;5054860;28;20025;-59
2023/03/10 08:47:33;;;;;;;0.43;0.20;;;;;;;;;;5054465;28;20021;-59
2023/03/10 08:49:59;;;;;;;3.00;1.08;;;;;;;;;;5053267;28;20061;-59
2023/03/10 08:52:25;;;;;;;0.38;0.20;;;;;;;;;;5054270;28;20059;-59
2023/03/10 08:54:51;;;;;;;0.35;0.10;;;;;;;;;;5054851;28;20057;-59
2023/03/10 08:57:17;;;;;;;0.20;0.10;;;;;;;;;;5054196;28;20032;-58
2023/03/10 08:59:42;;;;;;;0.65;0.32;;;;;;;;;;5054571;28;20127;-59
2023/03/10 09:02:13;;;;;;;0.68;0.30;;;;;;;;;;5053993;28;20033;-59
2023/03/10 09:04:39;;;;;;;0.20;0.10;;;;;;;;;;5054232;28;20028;-59
2023/03/10 09:07:05;;;;;;;0.43;0.10;;;;;;;;;;5053817;28;20031;-59
2023/03/10 09:09:31;;;;;;;1.10;0.22;;;;;;;;;;5054268;28;20079;-59
2023/03/10 09:11:57;;;;;;;5.32;0.40;;;;;;;;;;5053979;28;20029;-59
2023/03/10 09:14:23;;;;;;;1.45;0.73;;;;;;;;;;5054038;28;20045;-58
2023/03/10 09:16:49;;;;;;;2.30;0.52;;;;;;;;;;5054894;28;20142;-59
2023/03/10 09:19:15;;;;;;;0.93;0.28;;;;;;;;;;5053916;28;20108;-59
2023/03/10 09:21:41;;;;;;;4.53;0.63;;;;;;;;;;5053758;28;20099;-57
2023/03/10 09:24:08;;;;;;;0.90;0.30;;;;;;;;;;5053808;28;20029;-57
2023/03/10 09:26:34;;;;;;;1.38;0.98;;;;;;;;;;5053431;28;20035;-58
2023/03/10 09:29:00;;;;;;;1.65;0.52;;;;;;;;;;5053832;28;20105;-58
2023/03/10 09:31:34;;;;;;;0.70;0.30;;;;;;;;;;5053698;28;20033;-57
2023/03/10 09:34:00;;;;;;;0.82;0.47;;;;;;;;;;5053777;28;20107;-58
2023/03/10 09:36:26;;;;;;;1.63;0.73;;;;;;;;;;5054215;28;20040;-58
2023/03/10 09:38:52;;;;;;;1.55;0.68;;;;;;;;;;5053818;28;20021;-59
2023/03/10 09:41:20;;;;;;;1.52;0.43;;;;;;;;;;5053501;28;20033;-58
2023/03/10 09:44:10;;;;;;;1.60;0.30;;;;;;;;;;5053378;28;20433;-58
2023/03/10 09:46:47;;;;;;;1.33;0.85;;;;;;;;;;5053362;28;20371;-59
2023/03/10 09:49:16;;;;;;;0.90;0.52;;;;;;;;;;5053624;28;20033;-59
2023/03/10 09:51:44;;;;;;;0.40;0.17;;;;;;;;;;5053543;28;20502;-58
2023/03/10 09:54:28;;;;;;;1.02;0.60;;;;;;;;;;5053825;28;20025;-58
2023/03/10 09:56:56;;;;;;;1.75;0.35;;;;;;;;;;5054066;28;20025;-59
2023/03/10 09:59:31;;;;;;;1.55;0.30;;;;;;;;;;5053115;28;20111;-59
2023/03/10 10:01:59;;;;;;;1.83;0.52;;;;;;;;;;5053518;28;20455;-58
2023/03/10 10:04:28;;;;;;;0.68;0.30;;;;;;;;;;5053863;28;20053;-58
2023/03/10 10:06:56;;;;;;;0.50;0.30;;;;;;;;;;5053560;28;20066;-57
2023/03/10 10:09:26;;;;;;;1.50;0.30;;;;;;;;;;5053976;28;20074;-56
2023/03/10 10:11:52;;;;;;;1.77;0.20;;;;;;;;;;5053867;28;20163;-58
2023/03/10 10:14:18;;;;;;;1.83;0.30;;;;;;;;;;5055211;28;20127;-57
2023/03/10 10:16:54;;;;;;;1.13;0.43;;;;;;;;;;5057751;28;20440;-58
2023/03/10 10:19:26;;;;;;;1.88;0.25;;;;;;;;;;5057444;28;20092;-58
2023/03/10 10:22:11;;;;;;;0.20;0.10;;;;;;;;;;5057522;28;20111;-58
2023/03/10 10:24:39;;;;;;;2.75;0.38;;;;;;;;;;5057179;28;20482;-57
2023/03/10 10:27:05;;;;;;;1.30;0.50;;;;;;;;;;5057068;28;20021;-58
2023/03/10 10:29:31;;;;;;;2.20;0.50;;;;;;;;;;5057392;28;20028;-57
2023/03/10 10:32:17;;;;;;;0.73;0.17;;;;;;;;;;5056983;28;20029;-58
2023/03/10 10:34:44;;;;;;;2.72;0.30;;;;;;;;;;5057816;28;20098;-58
2023/03/10 10:37:23;;;;;;;3.97;0.35;;;;;;;;;;5057149;28;20025;-55
2023/03/10 10:39:50;;;;;;;0.65;0.17;;;;;;;;;;5056781;28;20029;-58
2023/03/10 10:42:16;;;;;;;1.20;0.30;;;;;;;;;;5056786;28;20032;-58
2023/03/10 10:44:43;;;;;;;0.73;0.20;;;;;;;;;;5056710;28;20032;-57
2023/03/10 10:47:24;;;;;;;0.85;0.10;;;;;;;;;;5056872;28;20028;-58
2023/03/10 10:49:50;;;;;;;2.17;0.35;;;;;;;;;;5056695;28;20075;-57
2023/03/10 10:52:21;;;;;;;2.90;0.95;;;;;;;;;;5056597;28;20065;-58
2023/03/10 10:54:55;;;;;;;0.85;0.45;;;;;;;;;;5056001;28;20025;-57
2023/03/10 10:57:23;;;;;;;0.00;0.00;;;;;;;;;;5057541;28;20071;-55
2023/03/10 10:59:49;;;;;;;1.10;0.35;;;;;;;;;;5056652;28;20529;-58
2023/03/10 11:02:22;;;;;;;0.40;0.20;;;;;;;;;;5057088;28;20119;-57
2023/03/10 11:04:48;;;;;;;1.08;0.43;;;;;;;;;;5057351;28;20080;-58
2023/03/10 11:07:25;;;;;;;0.90;0.50;;;;;;;;;;5056469;28;20060;-57
2023/03/10 11:09:51;;;;;;;0.63;0.20;;;;;;;;;;5056115;28;20455;-57
2023/03/10 11:12:30;;;;;;;1.65;0.52;;;;;;;;;;5056553;28;20037;-58
2023/03/10 11:15:12;;;;;;;0.38;0.20;;;;;;;;;;5056772;28;20029;-57
2023/03/10 11:17:43;;;;;;;2.10;0.82;;;;;;;;;;5056193;28;20033;-61
2023/03/10 11:20:14;;;;;;;0.80;0.20;;;;;;;;;;5056266;28;20378;-58
2023/03/10 11:22:52;;;;;;;1.27;0.43;;;;;;;;;;5056104;28;20029;-57
2023/03/10 11:25:41;;;;;;;0.82;0.20;;;;;;;;;;5055052;28;20074;-58
2023/03/10 11:28:13;;;;;;;1.67;1.35;;;;;;;;;;5052807;28;20029;-57
2023/03/10 11:30:43;;;;;;;1.48;0.38;;;;;;;;;;5055979;28;20090;-55
2023/03/10 11:33:25;;;;;;;0.10;0.10;;;;;;;;;;5056304;28;20383;-53
2023/03/10 11:35:54;;;;;;;1.05;0.22;;;;;;;;;;5056189;28;20052;-58
2023/03/10 11:38:27;;;;;;;0.00;0.00;;;;;;;;;;5055855;28;20028;-57
2023/03/10 11:41:16;;;;;;;0.52;0.30;;;;;;;;;;5056378;28;20060;-58
2023/03/10 11:43:42;;;;;;;2.00;0.70;;;;;;;;;;5052817;28;20072;-57
2023/03/10 11:46:16;;;;;;;2.70;0.25;;;;;;;;;;5056050;28;20033;-57
2023/03/10 11:48:59;;;;;;;1.90;0.50;;;;;;;;;;5056157;28;20025;-59
2023/03/10 11:51:38;;;;;;;0.82;0.25;;;;;;;;;;5055681;28;20033;-58
2023/03/10 11:54:10;;;;;;;0.55;0.22;;;;;;;;;;5055624;28;20025;-58
2023/03/10 11:56:37;;;;;;;0.55;0.30;;;;;;;;;;5056076;28;20042;-58
2023/03/10 11:59:09;;;;;;;2.38;0.57;;;;;;;;;;5055424;28;20064;-58
2023/03/10 12:01:41;;;;;;;0.30;0.10;;;;;;;;;;5055890;28;20029;-58
2023/03/10 12:04:26;;;;;;;0.95;0.30;;;;;;;;;;5055542;28;20123;-58
2023/03/10 12:06:55;;;;;;;0.85;0.10;;;;;;;;;;5055567;28;20079;-59
2023/03/10 12:09:29;;;;;;;3.13;0.50;;;;;;;;;;5055202;28;20025;-58
2023/03/10 12:11:55;;;;;;;1.90;1.55;;;;;;;;;;5055983;28;20033;-58
2023/03/10 12:14:23;;;;;;;0.93;0.43;;;;;;;;;;5056311;28;20049;-58
2023/03/10 12:16:49;;;;;;;0.85;0.13;;;;;;;;;;5055098;28;20490;-58
2023/03/10 12:19:15;;;;;;;1.13;0.68;;;;;;;;;;5054751;28;20025;-57
2023/03/10 12:21:41;;;;;;;2.58;0.40;;;;;;;;;;5054983;28;20033;-58
2023/03/10 12:24:27;;;;;;;0.15;0.10;;;;;;;;;;5054974;28;20091;-58
2023/03/10 12:26:58;;;;;;;1.52;0.30;;;;;;;;;;5054682;28;20356;-58
2023/03/10 12:29:26;;;;;;;3.15;0.30;;;;;;;;;;5055185;28;20032;-58
2023/03/10 12:31:54;;;;;;;0.65;0.25;;;;;;;;;;5054255;28;20533;-58
2023/03/10 12:34:21;;;;;;;0.45;0.20;;;;;;;;;;5055179;28;20025;-58
2023/03/10 12:36:49;;;;;;;0.47;0.35;;;;;;;;;;5055593;28;20459;-57
2023/03/10 12:39:28;;;;;;;1.83;0.38;;;;;;;;;;5054872;28;20040;-57
2023/03/10 12:41:55;;;;;;;0.38;0.38;;;;;;;;;;5053328;28;20148;-58
2023/03/10 12:44:23;;;;;;;0.38;0.10;;;;;;;;;;5054671;28;20070;-57
2023/03/10 12:46:52;;;;;;;0.20;0.00;;;;;;;;;;5054460;28;20021;-57
2023/03/10 12:49:41;;;;;;;0.20;0.00;;;;;;;;;;5054403;28;20379;-57
2023/03/10 12:52:26;;;;;;;0.95;0.10;;;;;;;;;;5054457;28;20525;-59
2023/03/10 12:55:03;;;;;;;0.43;0.20;;;;;;;;;;5054281;28;20032;-59
2023/03/10 12:57:42;;;;;;;0.70;0.25;;;;;;;;;;5054599;28;20463;-59
2023/03/10 13:00:34;;;;;;;0.10;0.10;;;;;;;;;;5054337;28;20039;-58
2023/03/10 13:03:09;;;;;;;0.13;0.03;;;;;;;;;;5045516;28;20116;-57
2023/03/10 13:05:38;;;;;;;1.30;0.20;;;;;;;;;;5053899;28;20024;-58
2023/03/10 13:08:11;;;;;;;0.00;0.00;;;;;;;;;;5054233;28;20036;-58
2023/03/10 13:10:37;;;;;;;0.20;0.10;;;;;;;;;;5054554;28;20029;-56
2023/03/10 13:13:07;;;;;;;0.28;0.10;;;;;;;;;;5054293;28;20082;-56
2023/03/10 13:15:34;;;;;;;0.25;0.10;;;;;;;;;;5054004;28;20029;-54
2023/03/10 13:18:10;;;;;;;0.05;0.05;;;;;;;;;;5053983;28;20025;-56
2023/03/10 13:20:37;;;;;;;0.35;0.17;;;;;;;;;;5054395;28;20112;-58
2023/03/10 13:23:03;;;;;;;0.43;0.28;;;;;;;;;;5053861;28;20017;-59
2023/03/10 13:25:31;;;;;;;0.00;0.00;;;;;;;;;;5054388;28;20032;-58
2023/03/10 13:27:57;;;;;;;0.00;0.00;;;;;;;;;;5053906;28;20040;-58
2023/03/10 13:30:25;;;;;;;0.08;0.00;;;;;;;;;;5053789;28;20037;-59
2023/03/10 13:32:58;;;;;;;0.08;0.00;;;;;;;;;;5054087;28;20021;-59
2023/03/10 13:35:24;;;;;;;2.38;0.17;;;;;;;;;;5053808;28;20036;-58
2023/03/10 13:38:04;;;;;;;0.63;0.30;;;;;;;;;;5053747;28;20352;-58
2023/03/10 13:40:30;;;;;;;0.00;0.00;;;;;;;;;;5054008;28;20075;-58
2023/03/10 13:42:56;;;;;;;1.48;0.45;;;;;;;;;;5054325;28;20025;-57
2023/03/10 13:45:24;;;;;;;0.10;0.10;;;;;;;;;;5054307;28;20021;-58
2023/03/10 13:47:50;;;;;;;0.73;0.70;;;;;;;;;;5053442;28;20029;-58
2023/03/10 13:50:16;;;;;;;0.25;0.10;;;;;;;;;;5053103;28;20060;-58
2023/03/10 13:52:53;;;;;;;0.30;0.10;;;;;;;;;;5053837;28;20032;-56
2023/03/10 13:55:19;;;;;;;0.28;0.15;;;;;;;;;;5054125;28;20028;-57
2023/03/10 13:57:46;;;;;;;0.00;0.00;;;;;;;;;;5054106;28;20047;-58
2023/03/10 14:00:15;;;;;;;0.25;0.10;;;;;;;;;;5053895;28;20091;-56
2023/03/10 14:02:43;;;;;;;0.17;0.05;;;;;;;;;;5053416;28;20070;-58
2023/03/10 14:05:29;;;;;;;0.20;0.10;;;;;;;;;;5054021;28;20033;-57
2023/03/10 14:07:59;;;;;;;0.25;0.08;;;;;;;;;;5053556;28;20032;-57
2023/03/10 14:10:25;;;;;;;0.30;0.20;;;;;;;;;;5053507;28;20123;-58
2023/03/10 14:12:53;;;;;;;0.22;0.10;;;;;;;;;;5053206;28;20049;-58
2023/03/10 14:15:19;;;;;;;0.28;0.00;;;;;;;;;;5053134;28;20463;-57
2023/03/10 14:17:46;;;;;;;0.03;0.00;;;;;;;;;;5053815;28;20071;-58
2023/03/10 14:20:24;;;;;;;0.00;0.00;;;;;;;;;;5053722;28;20056;-58
2023/03/10 14:22:50;;;;;;;0.10;0.00;;;;;;;;;;5053902;28;20414;-58
2023/03/10 14:25:17;;;;;;;0.30;0.15;;;;;;;;;;5053995;28;20083;-58
2023/03/10 14:27:45;;;;;;;0.22;0.10;;;;;;;;;;5053227;28;20112;-59
2023/03/10 14:30:19;;;;;;;0.38;0.13;;;;;;;;;;5053241;28;20043;-59
2023/03/10 14:32:45;;;;;;;0.10;0.03;;;;;;;;;;5053601;28;20037;-58
2023/03/10 14:35:11;;;;;;;0.00;0.00;;;;;;;;;;5053801;28;20078;-58
2023/03/10 14:37:37;;;;;;;0.00;0.00;;;;;;;;;;5053139;28;20025;-58
2023/03/10 14:40:04;;;;;;;0.10;0.00;;;;;;;;;;5053227;28;20107;-58
2023/03/10 14:42:30;;;;;;;0.10;0.05;;;;;;;;;;5052798;28;20037;-58
2023/03/10 14:44:58;;;;;;;0.20;0.00;;;;;;;;;;5053652;28;20458;-58
2023/03/10 14:47:24;;;;;;;0.68;0.05;;;;;;;;;;5053389;28;20026;-59
2023/03/10 14:49:50;;;;;;;0.55;0.30;;;;;;;;;;5053076;28;20032;-58